^^
Your Local Weather - Clay, NY Station Historical Data
Daily Summary for January 9, 2017 Units:  English    Metric   Both
« Previous Day
Next Day »
Daily Weekly Monthly Yearly Custom
  High: Low: Average:
Temperature: 22.5 °F 7.4 °F 14.5 °F
Dew Point: 10.6 °F 3.6 °F 7 °F
Humidity: 86% 54% 73%
Wind Speed: 6.0mph 0.0mph 1.4mph
Wind Gust: 11.0mph - -
Wind- - SSE
Pressure: 30.60 in 30.43 in -
Precipitation: 0.00 in    
Historical Graphs
 
 
Tabular Data for January 9, 2017
Time Temperature Dew Point Pressure Wind Wind Speed Wind Gust Humidity Rainfall Rate (Hourly) solar
00:00 10.1 °F 6.7 °F 30.57 in Calm     86% 0.00 in 0 W/m2
00:06 10.2 °F 6.8 °F 30.57 in Calm     86% 0.00 in 0 W/m2
00:12 10.3 °F 6.9 °F 30.57 in Calm     86% 0.00 in 0 W/m2
00:18 10.4 °F 7.0 °F 30.57 in Calm     86% 0.00 in 0 W/m2
00:24 10.5 °F 7.1 °F 30.57 in Calm     86% 0.00 in 0 W/m2
00:30 10.5 °F 7.1 °F 30.57 in Calm     86% 0.00 in 0 W/m2
00:36 10.6 °F 7.2 °F 30.57 in Calm     86% 0.00 in 0 W/m2
00:42 10.5 °F 7.1 °F 30.56 in Calm     86% 0.00 in 0 W/m2
00:48 10.4 °F 7.0 °F 30.56 in Calm     86% 0.00 in 0 W/m2
00:54 10.2 °F 6.6 °F 30.56 in Calm     85% 0.00 in 0 W/m2
01:00 10.0 °F 6.4 °F 30.57 in Calm     85% 0.00 in 0 W/m2
01:06 9.8 °F 6.2 °F 30.57 in Calm     85% 0.00 in 0 W/m2
01:12 9.6 °F 6.0 °F 30.57 in Calm     85% 0.00 in 0 W/m2
01:18 9.4 °F 5.8 °F 30.57 in Calm     85% 0.00 in 0 W/m2
01:24 9.3 °F 5.7 °F 30.57 in Calm     85% 0.00 in 0 W/m2
01:30 9.3 °F 5.7 °F 30.57 in Calm     85% 0.00 in 0 W/m2
01:36 9.2 °F 5.9 °F 30.57 in Calm     86% 0.00 in 0 W/m2
01:42 9.2 °F 5.9 °F 30.57 in Calm     86% 0.00 in 0 W/m2
01:48 9.6 °F 6.3 °F 30.57 in Calm     86% 0.00 in 0 W/m2
01:54 9.9 °F 6.6 °F 30.57 in Calm     86% 0.00 in 0 W/m2
02:00 10.1 °F 6.7 °F 30.57 in Calm     86% 0.00 in 0 W/m2
02:06 10.3 °F 6.9 °F 30.58 in Calm     86% 0.00 in 0 W/m2
02:12 10.4 °F 7.0 °F 30.58 in Calm     86% 0.00 in 0 W/m2
02:18 10.5 °F 6.9 °F 30.58 in Calm     85% 0.00 in 0 W/m2
02:24 10.5 °F 6.9 °F 30.59 in Calm     85% 0.00 in 0 W/m2
02:30 10.5 °F 6.9 °F 30.58 in Calm     85% 0.00 in 0 W/m2
02:36 10.5 °F 6.9 °F 30.59 in Calm     85% 0.00 in 0 W/m2
02:42 10.6 °F 7.0 °F 30.59 in Calm     85% 0.00 in 0 W/m2
02:48 10.5 °F 6.9 °F 30.59 in Calm     85% 0.00 in 0 W/m2
02:54 10.5 °F 6.9 °F 30.59 in Calm     85% 0.00 in 0 W/m2
03:00 10.4 °F 6.8 °F 30.58 in Calm     85% 0.00 in 0 W/m2
03:06 10.3 °F 6.7 °F 30.58 in Calm     85% 0.00 in 0 W/m2
03:12 10.2 °F 6.6 °F 30.59 in Calm     85% 0.00 in 0 W/m2
03:18 10.1 °F 6.5 °F 30.59 in Calm     85% 0.00 in 0 W/m2
03:24 10.2 °F 6.6 °F 30.59 in Calm     85% 0.00 in 0 W/m2
03:30 10.2 °F 6.6 °F 30.59 in Calm     85% 0.00 in 0 W/m2
03:36 10.2 °F 6.6 °F 30.59 in Calm     85% 0.00 in 0 W/m2
03:42 10.3 °F 6.7 °F 30.59 in Calm     85% 0.00 in 0 W/m2
03:48 10.3 °F 6.7 °F 30.59 in Calm     85% 0.00 in 0 W/m2
03:54 10.3 °F 6.7 °F 30.59 in Calm     85% 0.00 in 0 W/m2
04:00 10.4 °F 6.8 °F 30.59 in Calm     85% 0.00 in 0 W/m2
04:06 10.5 °F 6.9 °F 30.59 in Calm     85% 0.00 in 0 W/m2
04:12 10.6 °F 7.0 °F 30.58 in Calm     85% 0.00 in 0 W/m2
04:18 10.6 °F 7.0 °F 30.58 in Calm     85% 0.00 in 0 W/m2
04:24 10.6 °F 7.0 °F 30.58 in Calm     85% 0.00 in 0 W/m2
04:30 10.6 °F 7.0 °F 30.58 in Calm     85% 0.00 in 0 W/m2
04:36 10.6 °F 7.0 °F 30.58 in Calm     85% 0.00 in 0 W/m2
04:42 10.6 °F 7.0 °F 30.58 in Calm     85% 0.00 in 0 W/m2
04:48 10.6 °F 7.0 °F 30.58 in Calm     85% 0.00 in 0 W/m2
04:54 10.6 °F 7.0 °F 30.58 in Calm     85% 0.00 in 0 W/m2
05:00 10.6 °F 7.0 °F 30.57 in Calm     85% 0.00 in 0 W/m2
05:06 10.7 °F 7.1 °F 30.57 in Calm     85% 0.00 in 0 W/m2
05:12 10.7 °F 7.1 °F 30.57 in Calm     85% 0.00 in 0 W/m2
05:18 10.8 °F 7.4 °F 30.58 in Calm     86% 0.00 in 0 W/m2
05:24 10.9 °F 7.3 °F 30.57 in Calm     85% 0.00 in 0 W/m2
05:30 11.0 °F 7.6 °F 30.57 in Calm     86% 0.00 in 0 W/m2
05:36 11.0 °F 7.4 °F 30.57 in Calm     85% 0.00 in 0 W/m2
05:42 10.9 °F 7.5 °F 30.57 in Calm     86% 0.00 in 0 W/m2
05:48 10.9 °F 7.5 °F 30.58 in Calm     86% 0.00 in 0 W/m2
05:54 10.8 °F 7.4 °F 30.58 in Calm     86% 0.00 in 0 W/m2
06:00 10.8 °F 7.2 °F 30.58 in Calm     85% 0.00 in 0 W/m2
06:06 10.8 °F 7.2 °F 30.58 in Calm     85% 0.00 in 0 W/m2
06:12 10.8 °F 7.2 °F 30.59 in Calm     85% 0.00 in 0 W/m2
06:18 10.8 °F 7.2 °F 30.59 in Calm     85% 0.00 in 0 W/m2
06:24 10.8 °F 7.2 °F 30.59 in Calm     85% 0.00 in 0 W/m2
06:30 10.8 °F 7.2 °F 30.59 in Calm     85% 0.00 in 0 W/m2
06:36 10.7 °F 7.1 °F 30.59 in Calm     85% 0.00 in 0 W/m2
06:42 10.2 °F 6.3 °F 30.59 in Calm     84% 0.00 in 0 W/m2
06:48 9.2 °F 5.1 °F 30.59 in Calm     83% 0.00 in 0 W/m2
06:54 8.7 °F 4.9 °F 30.59 in Calm     84% 0.00 in 0 W/m2
07:00 8.6 °F 4.8 °F 30.59 in Calm     84% 0.00 in 0 W/m2
07:06 8.5 °F 4.7 °F 30.59 in Calm     84% 0.00 in 0 W/m2
07:12 8.4 °F 4.6 °F 30.59 in Calm     84% 0.00 in 0 W/m2
07:18 8.3 °F 4.7 °F 30.59 in Calm     85% 0.00 in 0 W/m2
07:24 8.1 °F 4.3 °F 30.60 in Calm     84% 0.00 in 0 W/m2
07:30 7.9 °F 4.1 °F 30.59 in Calm     84% 0.00 in 0 W/m2
07:36 7.8 °F 4.0 °F 30.60 in Calm     84% 0.00 in 0 W/m2
07:42 7.6 °F 3.8 °F 30.60 in Calm     84% 0.00 in 0 W/m2
07:48 7.5 °F 3.7 °F 30.60 in Calm     84% 0.00 in 0 W/m2
07:54 7.4 °F 3.6 °F 30.60 in Calm     84% 0.00 in 0 W/m2
08:00 7.4 °F 3.6 °F 30.60 in Calm     84% 0.00 in 5 W/m2
08:06 7.5 °F 3.7 °F 30.60 in Calm     84% 0.00 in 7 W/m2
08:12 7.5 °F 3.9 °F 30.60 in Calm     85% 0.00 in 7 W/m2
08:18 7.6 °F 4.0 °F 30.60 in Calm     85% 0.00 in 9 W/m2
08:24 7.8 °F 4.2 °F 30.60 in Calm     85% 0.00 in 11 W/m2
08:30 7.9 °F 4.3 °F 30.60 in Calm     85% 0.00 in 12 W/m2
08:36 8.1 °F 4.5 °F 30.60 in Calm     85% 0.00 in 14 W/m2
08:42 8.3 °F 4.7 °F 30.59 in Calm     85% 0.00 in 18 W/m2
08:48 8.4 °F 4.8 °F 30.59 in Calm   1.0 mph 85% 0.00 in 19 W/m2
08:54 8.5 °F 4.7 °F 30.59 in Calm   1.0 mph 84% 0.00 in 21 W/m2
09:00 8.6 °F 4.8 °F 30.59 in Calm     84% 0.00 in 25 W/m2
09:06 8.8 °F 5.0 °F 30.59 in Calm     84% 0.00 in 28 W/m2
09:12 9.1 °F 5.2 °F 30.59 in Calm   1.0 mph 84% 0.00 in 32 W/m2
09:18 9.3 °F 5.4 °F 30.59 in Calm   1.0 mph 84% 0.00 in 33 W/m2
09:24 9.4 °F 5.5 °F 30.58 in Calm   2.0 mph 84% 0.00 in 33 W/m2
09:30 9.5 °F 5.6 °F 30.58 in Calm     84% 0.00 in 33 W/m2
09:36 9.8 °F 5.9 °F 30.58 in Calm     84% 0.00 in 33 W/m2
09:42 10.4 °F 6.5 °F 30.58 in Calm   1.0 mph 84% 0.00 in 39 W/m2
09:48 10.8 °F 6.7 °F 30.58 in Calm   1.0 mph 83% 0.00 in 44 W/m2
09:54 11.3 °F 7.1 °F 30.58 in Calm     83% 0.00 in 46 W/m2
10:00 12.0 °F 7.8 °F 30.58 in Calm     83% 0.00 in 47 W/m2
10:06 12.6 °F 8.4 °F 30.58 in Calm     83% 0.00 in 51 W/m2
10:12 13.0 °F 8.5 °F 30.58 in ENE 1.0 mph 2.0 mph 82% 0.00 in 51 W/m2
10:18 13.3 °F 8.6 °F 30.58 in Calm   2.0 mph 81% 0.00 in 53 W/m2
10:24 13.8 °F 9.0 °F 30.58 in Calm   1.0 mph 81% 0.00 in 60 W/m2
10:30 14.3 °F 9.3 °F 30.57 in Calm   1.0 mph 80% 0.00 in 56 W/m2
10:36 15.0 °F 9.7 °F 30.57 in ESE 1.0 mph 3.0 mph 79% 0.00 in 56 W/m2
10:42 15.6 °F 10.0 °F 30.56 in East 1.0 mph 1.0 mph 78% 0.00 in 63 W/m2
10:48 16.1 °F 10.2 °F 30.56 in SE 1.0 mph 1.0 mph 77% 0.00 in 67 W/m2
10:54 16.5 °F 10.3 °F 30.56 in SSE 2.0 mph 5.0 mph 76% 0.00 in 70 W/m2
11:00 17.2 °F 10.6 °F 30.56 in SSE 3.0 mph 4.0 mph 75% 0.00 in 65 W/m2
11:06 17.5 °F 9.7 °F 30.55 in South 4.0 mph 5.0 mph 71% 0.00 in 62 W/m2
11:14 17.8 °F 9.7 °F 30.54 in SSW 4.0 mph 4.0 mph 70% 0.00 in 62 W/m2
11:20 17.9 °F 9.1 °F 30.54 in SSE 5.0 mph 7.0 mph 68% 0.00 in 69 W/m2
11:26 18.3 °F 9.5 °F 30.54 in South 5.0 mph 7.0 mph 68% 0.00 in 76 W/m2
11:32 18.4 °F 9.3 °F 30.53 in South 5.0 mph 7.0 mph 67% 0.00 in 83 W/m2
11:38 18.3 °F 8.5 °F 30.53 in SE 6.0 mph 7.0 mph 65% 0.00 in 86 W/m2
11:44 18.4 °F 8.9 °F 30.53 in SSE 6.0 mph 8.0 mph 66% 0.00 in 90 W/m2
11:50 18.4 °F 8.6 °F 30.53 in SSW 5.0 mph 7.0 mph 65% 0.00 in 86 W/m2
11:56 18.4 °F 8.2 °F 30.50 in SE 6.0 mph 9.0 mph 64% 0.00 in 98 W/m2
12:02 18.6 °F 8.4 °F 30.51 in SSE 6.0 mph 9.0 mph 64% 0.00 in 107 W/m2
12:08 18.6 °F 8.1 °F 30.51 in SE 6.0 mph 9.0 mph 63% 0.00 in 102 W/m2
12:16 19.1 °F 8.9 °F 30.50 in SE 5.0 mph 6.0 mph 64% 0.00 in 97 W/m2
12:22 18.9 °F 8.0 °F 30.50 in South 6.0 mph 7.0 mph 62% 0.00 in 209 W/m2
12:28 19.0 °F 8.1 °F 30.50 in SSE 5.0 mph 8.0 mph 62% 0.00 in 200 W/m2
12:34 19.2 °F 9.0 °F 30.50 in South 4.0 mph 5.0 mph 64% 0.00 in 234 W/m2
12:40 19.3 °F 8.0 °F 30.49 in SSE 5.0 mph 6.0 mph 61% 0.00 in 251 W/m2
12:46 19.8 °F 8.9 °F 30.49 in South 5.0 mph 7.0 mph 62% 0.00 in 279 W/m2
12:52 20.0 °F 8.7 °F 30.48 in SSW 4.0 mph 6.0 mph 61% 0.00 in 253 W/m2
12:58 20.0 °F 8.3 °F 30.48 in South 5.0 mph 7.0 mph 60% 0.00 in 237 W/m2
13:04 20.1 °F 8.4 °F 30.48 in SSE 5.0 mph 5.0 mph 60% 0.00 in 232 W/m2
13:10 20.2 °F 7.8 °F 30.47 in SSE 6.0 mph 6.0 mph 58% 0.00 in 250 W/m2
13:16 20.6 °F 8.5 °F 30.47 in South 5.0 mph 6.0 mph 59% 0.00 in 246 W/m2
13:22 20.6 °F 8.1 °F 30.46 in SSE 5.0 mph 7.0 mph 58% 0.00 in 179 W/m2
13:28 20.8 °F 8.7 °F 30.46 in SSE 5.0 mph 7.0 mph 59% 0.00 in 237 W/m2
13:36 21.3 °F 8.8 °F 30.46 in SSE 4.0 mph 5.0 mph 58% 0.00 in 206 W/m2
13:42 21.2 °F 8.7 °F 30.46 in SSE 4.0 mph 5.0 mph 58% 0.00 in 195 W/m2
13:48 21.2 °F 8.3 °F 30.46 in SSE 5.0 mph 10.0 mph 57% 0.00 in 162 W/m2
13:56 21.2 °F 8.7 °F 30.46 in SE 5.0 mph 6.0 mph 58% 0.00 in 141 W/m2
14:02 21.3 °F 8.8 °F 30.46 in SSE 4.0 mph 6.0 mph 58% 0.00 in 141 W/m2
14:08 21.5 °F 9.4 °F 30.45 in SSE 4.0 mph 6.0 mph 59% 0.00 in 137 W/m2
14:14 21.7 °F 9.6 °F 30.45 in SSE 3.0 mph 4.0 mph 59% 0.00 in 86 W/m2
14:20 21.7 °F 9.2 °F 30.45 in SE 4.0 mph 4.0 mph 58% 0.00 in 104 W/m2
14:26 21.6 °F 9.1 °F 30.45 in SSE 4.0 mph 5.0 mph 58% 0.00 in 116 W/m2
14:32 21.5 °F 9.0 °F 30.45 in South 5.0 mph 6.0 mph 58% 0.00 in 105 W/m2
14:38 21.6 °F 9.5 °F 30.45 in SSW 4.0 mph 6.0 mph 59% 0.00 in 102 W/m2
14:46 21.4 °F 9.7 °F 30.45 in SSE 5.0 mph 7.0 mph 60% 0.00 in 111 W/m2
14:52 21.4 °F 10.0 °F 30.45 in ESE 6.0 mph 6.0 mph 61% 0.00 in 116 W/m2
14:58 21.6 °F 9.8 °F 30.45 in SSE 6.0 mph 11.0 mph 60% 0.00 in 137 W/m2
15:04 21.6 °F 9.8 °F 30.45 in South 6.0 mph 6.0 mph 60% 0.00 in 127 W/m2
15:10 21.8 °F 10.4 °F 30.44 in South 5.0 mph 5.0 mph 61% 0.00 in 93 W/m2
15:16 21.8 °F 10.4 °F 30.44 in South 5.0 mph 9.0 mph 61% 0.00 in 88 W/m2
15:22 21.8 °F 10.0 °F 30.44 in SSE 5.0 mph 9.0 mph 60% 0.00 in 93 W/m2
15:28 21.8 °F 10.4 °F 30.44 in South 5.0 mph 9.0 mph 61% 0.00 in 95 W/m2
15:36 22.2 °F 10.4 °F 30.43 in SSE 5.0 mph 7.0 mph 60% 0.00 in 155 W/m2
15:42 22.4 °F 10.2 °F 30.43 in SE 5.0 mph 7.0 mph 59% 0.00 in 118 W/m2
15:48 22.5 °F 10.3 °F 30.43 in South 4.0 mph 7.0 mph 59% 0.00 in 79 W/m2
15:54 22.4 °F 10.2 °F 30.43 in South 3.0 mph 6.0 mph 59% 0.00 in 72 W/m2
16:00 22.3 °F 9.7 °F 30.43 in SE 4.0 mph 4.0 mph 58% 0.00 in 58 W/m2
16:06 22.3 °F 10.1 °F 30.44 in SSE 4.0 mph 7.0 mph 59% 0.00 in 46 W/m2
16:12 22.3 °F 10.5 °F 30.45 in SSW 3.0 mph 3.0 mph 60% 0.00 in 74 W/m2
16:18 22.4 °F 10.2 °F 30.45 in SW 3.0 mph 4.0 mph 59% 0.00 in 30 W/m2
16:24 22.4 °F 10.2 °F 30.45 in South 3.0 mph 5.0 mph 59% 0.00 in 21 W/m2
16:30 22.2 °F 9.7 °F 30.45 in SSE 3.0 mph 5.0 mph 58% 0.00 in 18 W/m2
16:36 22.2 °F 9.3 °F 30.45 in SSE 4.0 mph 5.0 mph 57% 0.00 in 14 W/m2
16:42 22.1 °F 9.6 °F 30.45 in SSE 3.0 mph 4.0 mph 58% 0.00 in 5 W/m2
16:48 21.9 °F 9.7 °F 30.45 in SE 2.0 mph 4.0 mph 59% 0.00 in 0 W/m2
16:54 21.7 °F 9.2 °F 30.45 in SE 2.0 mph 3.0 mph 58% 0.00 in 0 W/m2
17:00 21.6 °F 9.1 °F 30.44 in SSE 3.0 mph 3.0 mph 58% 0.00 in 0 W/m2
17:06 21.5 °F 9.0 °F 30.44 in SSE 1.0 mph 3.0 mph 58% 0.00 in 0 W/m2
17:12 21.1 °F 9.0 °F 30.44 in SSE 1.0 mph 1.0 mph 59% 0.00 in 0 W/m2
17:18 20.8 °F 8.7 °F 30.45 in SSE 1.0 mph 2.0 mph 59% 0.00 in 0 W/m2
17:24 20.3 °F 8.6 °F 30.45 in SSE 1.0 mph 1.0 mph 60% 0.00 in 0 W/m2
17:30 19.9 °F 8.6 °F 30.45 in SSE 1.0 mph 1.0 mph 61% 0.00 in 0 W/m2
17:36 20.2 °F 8.5 °F 30.45 in South 1.0 mph 3.0 mph 60% 0.00 in 0 W/m2
17:42 20.2 °F 8.5 °F 30.45 in South 1.0 mph 2.0 mph 60% 0.00 in 0 W/m2
17:48 20.1 °F 8.1 °F 30.45 in SSW 1.0 mph 2.0 mph 59% 0.00 in 0 W/m2
17:54 20.3 °F 7.9 °F 30.46 in SSW 1.0 mph 2.0 mph 58% 0.00 in 0 W/m2
18:00 20.5 °F 6.9 °F 30.45 in SSE 2.0 mph 3.0 mph 55% 0.00 in 0 W/m2
18:06 20.8 °F 7.2 °F 30.46 in SSW 2.0 mph 6.0 mph 55% 0.00 in 0 W/m2
18:12 20.8 °F 6.7 °F 30.46 in South 2.0 mph 2.0 mph 54% 0.00 in 0 W/m2
18:18 20.9 °F 6.8 °F 30.46 in South 2.0 mph 5.0 mph 54% 0.00 in 0 W/m2
18:24 20.9 °F 6.8 °F 30.47 in SW 2.0 mph 3.0 mph 54% 0.00 in 0 W/m2
18:30 20.6 °F 6.6 °F 30.47 in SSW 2.0 mph 2.0 mph 54% 0.00 in 0 W/m2
18:36 20.3 °F 6.7 °F 30.47 in South 1.0 mph 2.0 mph 55% 0.00 in 0 W/m2
18:42 20.2 °F 6.6 °F 30.47 in South 2.0 mph 4.0 mph 55% 0.00 in 0 W/m2
18:48 20.3 °F 6.7 °F 30.47 in South 2.0 mph 4.0 mph 55% 0.00 in 0 W/m2
18:54 20.3 °F 6.7 °F 30.47 in SSW 3.0 mph 4.0 mph 55% 0.00 in 0 W/m2
19:00 20.4 °F 6.8 °F 30.47 in SSW 4.0 mph 4.0 mph 55% 0.00 in 0 W/m2
19:06 20.4 °F 6.8 °F 30.47 in South 3.0 mph 5.0 mph 55% 0.00 in 0 W/m2
19:12 20.5 °F 6.5 °F 30.47 in South 3.0 mph 4.0 mph 54% 0.00 in 0 W/m2
19:18 20.5 °F 6.5 °F 30.47 in SSW 3.0 mph 5.0 mph 54% 0.00 in 0 W/m2
19:24 20.4 °F 6.4 °F 30.47 in South 2.0 mph 6.0 mph 54% 0.00 in 0 W/m2
19:30 20.4 °F 6.8 °F 30.48 in SSE 2.0 mph 4.0 mph 55% 0.00 in 0 W/m2
19:36 20.5 °F 6.5 °F 30.48 in SSW 3.0 mph 4.0 mph 54% 0.00 in 0 W/m2
19:42 20.6 °F 6.6 °F 30.48 in South 3.0 mph 3.0 mph 54% 0.00 in 0 W/m2
19:48 20.5 °F 6.5 °F 30.48 in South 3.0 mph 3.0 mph 54% 0.00 in 0 W/m2
19:54 20.1 °F 6.5 °F 30.47 in South 2.0 mph 2.0 mph 55% 0.00 in 0 W/m2
20:00 19.5 °F 6.3 °F 30.48 in SSE 1.0 mph 2.0 mph 56% 0.00 in 0 W/m2
20:06 19.2 °F 6.1 °F 30.48 in SSE 1.0 mph 2.0 mph 56% 0.00 in 0 W/m2
20:12 18.7 °F 6.0 °F 30.48 in SSE 1.0 mph 1.0 mph 57% 0.00 in 0 W/m2
20:18 18.1 °F 5.8 °F 30.48 in Calm   1.0 mph 58% 0.00 in 0 W/m2
20:24 17.8 °F 5.9 °F 30.48 in Calm   2.0 mph 59% 0.00 in 0 W/m2
20:30 17.5 °F 5.6 °F 30.48 in Calm     59% 0.00 in 0 W/m2
20:36 17.1 °F 5.6 °F 30.48 in Calm     60% 0.00 in 0 W/m2
20:42 16.2 °F 5.1 °F 30.48 in Calm     61% 0.00 in 0 W/m2
20:48 15.7 °F 5.0 °F 30.48 in Calm     62% 0.00 in 0 W/m2
20:54 15.7 °F 5.3 °F 30.48 in Calm   1.0 mph 63% 0.00 in 0 W/m2
21:00 15.5 °F 5.5 °F 30.48 in Calm     64% 0.00 in 0 W/m2
21:06 15.1 °F 5.8 °F 30.48 in Calm     66% 0.00 in 0 W/m2
21:12 14.3 °F 5.7 °F 30.48 in Calm     68% 0.00 in 0 W/m2
21:18 13.6 °F 5.3 °F 30.48 in Calm   1.0 mph 69% 0.00 in 0 W/m2
21:24 12.9 °F 5.0 °F 30.48 in Calm     70% 0.00 in 0 W/m2
21:30 12.4 °F 5.1 °F 30.48 in Calm     72% 0.00 in 0 W/m2
21:36 12.2 °F 4.6 °F 30.48 in Calm     71% 0.00 in 0 W/m2
21:42 12.1 °F 4.5 °F 30.48 in Calm     71% 0.00 in 0 W/m2
21:48 11.8 °F 4.5 °F 30.49 in Calm     72% 0.00 in 0 W/m2
21:54 11.5 °F 4.5 °F 30.48 in Calm     73% 0.00 in 0 W/m2
22:00 11.5 °F 5.1 °F 30.48 in Calm     75% 0.00 in 0 W/m2
22:06 11.4 °F 4.7 °F 30.48 in Calm     74% 0.00 in 0 W/m2
22:12 11.2 °F 4.8 °F 30.48 in Calm     75% 0.00 in 0 W/m2
22:18 11.1 °F 5.0 °F 30.48 in Calm     76% 0.00 in 0 W/m2
22:24 11.0 °F 5.2 °F 30.48 in Calm     77% 0.00 in 0 W/m2
22:30 11.0 °F 5.5 °F 30.49 in Calm     78% 0.00 in 0 W/m2
22:36 11.0 °F 5.5 °F 30.49 in Calm     78% 0.00 in 0 W/m2
22:42 10.8 °F 5.3 °F 30.49 in Calm   1.0 mph 78% 0.00 in 0 W/m2
22:48 10.7 °F 5.2 °F 30.48 in Calm   1.0 mph 78% 0.00 in 0 W/m2
22:54 10.7 °F 5.2 °F 30.48 in Calm     78% 0.00 in 0 W/m2
23:00 10.6 °F 5.1 °F 30.48 in Calm     78% 0.00 in 0 W/m2
23:06 10.3 °F 4.5 °F 30.49 in Calm     77% 0.00 in 0 W/m2
23:12 10.1 °F 4.0 °F 30.49 in Calm   1.0 mph 76% 0.00 in 0 W/m2
23:18 9.9 °F 4.1 °F 30.49 in Calm   1.0 mph 77% 0.00 in 0 W/m2
23:24 9.8 °F 4.3 °F 30.49 in Calm     78% 0.00 in 0 W/m2
23:30 9.9 °F 4.4 °F 30.49 in Calm     78% 0.00 in 0 W/m2
23:36 9.8 °F 4.6 °F 30.49 in Calm     79% 0.00 in 0 W/m2
23:42 9.7 °F 4.5 °F 30.48 in Calm     79% 0.00 in 0 W/m2
23:48 9.7 °F 4.2 °F 30.48 in Calm     78% 0.00 in 0 W/m2
23:54 9.7 °F 4.5 °F 30.48 in Calm     79% 0.00 in 0 W/m2
Country Meadow, Clay, NY, USA
Compliments of Weather Underground - 2 mb